Arca — PDHT — position and weather

sailwx.info

Track history (hours):
 
Tides and Currents Weather Stations Pressure Air Temp Water Temp Dewpoint Dewpoint Depression Visibility Wind Speed Wind Dir Waves Ship Positions

Oceanographic research ship Arca (Netherlands)

Detailed information on ship capabilities available from University of Delaware's Ocean Information Center.

Last reported at 2016-May-27 04:32 UTC. Time now 2016-May-27 04:34 UTC.
Position N 52°06' E 004°16'.

Length 83 m; draft 5 m.

Type: Law enforcement. MMSI: 244454000.

Date/timePositionNaut miles runAvg speedWind from/ knotsBaromVisibWave heightAir tempDewpointWater temp
2016-May-27 04:32N 52°06' E 004°16'0 0.0
2016-May-27 03:32N 52°06' E 004°16'0 0.0
2016-May-27 02:32N 52°06' E 004°16'0 0.0
2016-May-27 01:32N 52°06' E 004°16'0 0.0
2016-May-27 00:32N 52°06' E 004°16'0 0.0
2016-May-26 23:32N 52°06' E 004°16'0 0.0
2016-May-26 22:32N 52°06' E 004°16'0 0.0
2016-May-26 21:32N 52°06' E 004°16'0 0.0
2016-May-26 20:32N 52°06' E 004°16'0 0.0
2016-May-26 19:32N 52°06' E 004°16'0 0.0
2016-May-26 18:32N 52°06' E 004°16'0 0.0
2016-May-26 17:32N 52°06' E 004°16'0 0.0
2016-May-26 16:29N 52°06' E 004°16'0 0.0
2016-May-26 15:32N 52°06' E 004°16'0 0.0
2016-May-26 14:32N 52°06' E 004°16'0 0.0
2016-May-26 13:29N 52°06' E 004°16'0 0.0
2016-May-26 12:29N 52°06' E 004°16'0 0.0
2016-May-26 11:32N 52°06' E 004°16'0 0.0
2016-May-26 10:32N 52°06' E 004°16'0 0.0
2016-May-26 09:32N 52°06' E 004°16'0 0.0
2016-May-26 08:32N 52°06' E 004°16'0 0.0
2016-May-26 07:32N 52°06' E 004°16'0 0.0
2016-May-26 06:32N 52°06' E 004°16'0 0.0
2016-May-26 05:29N 52°06' E 004°16'0 0.0
2016-May-26 04:32N 52°06' E 004°16'0 0.0
2016-May-26 03:32N 52°06' E 004°16'0 0.0
2016-May-26 02:32N 52°06' E 004°16'0 0.0
2016-May-26 01:32N 52°06' E 004°16'0 0.0
2016-May-26 00:32N 52°06' E 004°16'0 0.0
2016-May-25 23:32N 52°06' E 004°16'0 0.0
2016-May-25 22:29N 52°06' E 004°16'0 0.0
2016-May-25 21:32N 52°06' E 004°16'0 0.0
2016-May-25 20:32N 52°06' E 004°16'0 0.0
2016-May-25 19:32N 52°06' E 004°16'0 0.0
2016-May-25 18:32N 52°06' E 004°16'5 5.3
2016-May-25 17:33N 52°03' E 004°08'5 5.5
2016-May-25 16:34N 51°58' E 004°05'0 0.2
2016-May-25 15:34N 51°58' E 004°05'0 0.5
2016-May-25 14:34N 51°58' E 004°06'0 0.3
2016-May-25 13:33N 51°58' E 004°05'1 1.1
2016-May-25 12:33N 51°59' E 004°04'1 1.0
2016-May-25 11:34N 51°59' E 004°03'1 1.1
2016-May-25 10:33N 51°59' E 004°04'1 0.7
2016-May-25 09:34N 51°59' E 004°03'0 0.5
2016-May-25 08:33N 51°59' E 004°04'0 0.1
2016-May-25 07:34N 51°59' E 004°04'1 1.1
2016-May-25 06:33N 51°59' E 004°02'2 2.4
2016-May-25 05:34N 51°58' E 004°06'2 2.1
2016-May-25 04:33N 52°00' E 004°05'0 0.0
2016-May-25 03:33N 52°00' E 004°05'0 0.1
2016-May-25 02:33N 52°00' E 004°05'0 0.0
2016-May-25 01:33N 52°00' E 004°05'0 0.0
2016-May-25 00:33N 52°00' E 004°05'0 0.0
2016-May-24 23:33N 52°00' E 004°05'0 0.0
2016-May-24 22:33N 52°00' E 004°05'0 0.0
2016-May-24 21:33N 52°00' E 004°05'0 0.0
2016-May-24 20:33N 52°00' E 004°05'2 1.6
2016-May-24 19:33N 51°59' E 004°03'1 0.8
2016-May-24 18:33N 51°59' E 004°04'1 0.8
2016-May-24 17:33N 51°58' E 004°05'0 0.3
2016-May-24 16:33N 51°58' E 004°05'0 0.3
2016-May-24 15:33N 51°58' E 004°06'0 0.1
2016-May-24 14:33N 51°58' E 004°06'0 0.3
2016-May-24 13:33N 51°58' E 004°06'1 0.9
2016-May-24 12:33N 51°59' E 004°05'1 0.7
2016-May-24 11:33N 51°59' E 004°04'1 0.8
2016-May-24 10:34N 51°59' E 004°03'0 0.3
2016-May-24 09:33N 51°59' E 004°03'0 0.1
2016-May-24 08:33N 51°59' E 004°03'1 0.7
2016-May-24 07:33N 51°59' E 004°04'1 1.1
2016-May-24 06:33N 51°59' E 004°06'0 0.2
2016-May-24 05:33N 51°58' E 004°06'2 2.0
2016-May-24 04:32N 52°00' E 004°05'0 0.0
2016-May-24 03:32N 52°00' E 004°05'0 0.0
2016-May-24 02:32N 52°00' E 004°05'0 0.0
2016-May-24 01:32N 52°00' E 004°05'0 0.0
2016-May-24 00:32N 52°00' E 004°05'0 0.0
2016-May-23 23:32N 52°00' E 004°05'0 0.0
2016-May-23 22:32N 52°00' E 004°04'0 0.0
2016-May-23 21:32N 52°00' E 004°05'0 0.0
2016-May-23 20:32N 52°00' E 004°05'0 0.0
2016-May-23 19:32N 52°00' E 004°05'3 2.7
2016-May-23 18:34N 51°58' E 004°05'0 0.3
2016-May-23 17:34N 51°58' E 004°05'0 0.5
2016-May-23 16:34N 51°59' E 004°05'1 0.6
2016-May-23 15:34N 51°58' E 004°06'4 3.8
2016-May-23 14:34N 51°60' E 004°01'9 9.5
2016-May-23 13:34N 52°06' E 004°12'2 2.0
2016-May-23 12:33N 52°06' E 004°16'0 0.0
2016-May-23 11:30N 52°06' E 004°16'0 0.0
2016-May-23 10:33N 52°06' E 004°16'0 0.0
2016-May-23 09:33N 52°06' E 004°16'0 0.0
2016-May-23 08:33N 52°06' E 004°16'0 0.0
2016-May-23 07:33N 52°06' E 004°16'0 0.0
2016-May-23 06:33N 52°06' E 004°16'0 0.0
2016-May-23 05:33N 52°06' E 004°16'0 0.0
2016-May-23 04:33N 52°06' E 004°16'0 0.0
2016-May-23 03:33N 52°06' E 004°16'0 0.0
2016-May-23 02:33N 52°06' E 004°16'0 0.0
2016-May-23 01:33N 52°06' E 004°16'0 0.0
2016-May-23 00:33N 52°06' E 004°16'0 0.0
2016-May-22 23:33N 52°06' E 004°16'0 0.0
2016-May-22 22:33N 52°06' E 004°16'0 0.0
2016-May-22 21:33N 52°06' E 004°16'0 0.0
2016-May-22 20:27N 52°06' E 004°16'0 0.0
2016-May-22 19:27N 52°06' E 004°16'0 0.0
2016-May-22 18:33N 52°06' E 004°16'0 0.0
2016-May-22 17:30N 52°06' E 004°16'0 0.0
2016-May-22 16:27N 52°06' E 004°16'0 0.0
2016-May-22 15:33N 52°06' E 004°16'0 0.0
2016-May-22 14:33N 52°06' E 004°16'0 0.0
2016-May-22 13:33N 52°06' E 004°16'0 0.0
2016-May-22 12:33N 52°06' E 004°16'0 0.0
2016-May-22 11:33N 52°06' E 004°16'0 0.0
2016-May-22 10:30N 52°06' E 004°16'0 0.0
2016-May-22 09:33N 52°06' E 004°16'0 0.0
2016-May-22 08:33N 52°06' E 004°16'0 0.0
2016-May-22 07:33N 52°06' E 004°16'0 0.0
2016-May-22 06:30N 52°06' E 004°16'0 0.0
2016-May-22 05:33N 52°06' E 004°16'0 0.0
2016-May-22 04:33N 52°06' E 004°16'0 0.0
2016-May-22 03:30N 52°06' E 004°16'0 0.0
2016-May-22 02:33N 52°06' E 004°16'0 0.0
2016-May-22 01:33N 52°06' E 004°16'0 0.0
2016-May-22 00:30N 52°06' E 004°16'0 0.0
2016-May-21 23:33N 52°06' E 004°16'0 0.0
2016-May-21 22:24N 52°06' E 004°16'0 0.0
2016-May-21 21:33N 52°06' E 004°16'0 0.0
2016-May-21 20:33N 52°06' E 004°16'0 0.0
2016-May-21 19:30N 52°06' E 004°16'0 0.0
2016-May-21 18:33N 52°06' E 004°16'0 0.0
2016-May-21 17:33N 52°06' E 004°16'0 0.0
2016-May-21 16:33N 52°06' E 004°16'0 0.0
2016-May-21 15:30N 52°06' E 004°16'0 0.0
2016-May-21 14:33N 52°06' E 004°16'0 0.0
2016-May-21 13:33N 52°06' E 004°16'0 0.0
2016-May-21 12:33N 52°06' E 004°16'0 0.0
2016-May-21 11:33N 52°06' E 004°16'0 0.0
2016-May-21 10:27N 52°06' E 004°16'0 0.0
2016-May-21 09:33N 52°06' E 004°16'0 0.0
2016-May-21 08:27N 52°06' E 004°16'0 0.0
2016-May-21 07:33N 52°06' E 004°16'0 0.0
2016-May-21 06:27N 52°06' E 004°16'0 0.0
2016-May-21 05:33N 52°06' E 004°16'0 0.0
2016-May-21 04:33N 52°06' E 004°16'0 0.0
2016-May-21 03:33N 52°06' E 004°16'0 0.0
2016-May-21 02:30N 52°06' E 004°16'0 0.0
2016-May-21 01:33N 52°06' E 004°16'0 0.0
2016-May-21 00:33N 52°06' E 004°16'0 0.0
2016-May-20 23:30N 52°06' E 004°16'0 0.0
2016-May-20 22:33N 52°06' E 004°16'0 0.0
2016-May-20 21:33N 52°06' E 004°16'0 0.0
2016-May-20 20:33N 52°06' E 004°16'0 0.0
2016-May-20 19:33N 52°06' E 004°16'0 0.0
2016-May-20 18:33N 52°06' E 004°16'0 0.0
2016-May-20 17:33N 52°06' E 004°16'0 0.0
2016-May-20 16:33N 52°06' E 004°16'0 0.0
2016-May-20 15:33N 52°06' E 004°16'0 0.0
2016-May-20 14:33N 52°06' E 004°16'0 0.0
2016-May-20 13:33N 52°06' E 004°16'2 2.4
2016-May-20 12:33N 52°08' E 004°14'1110.7
2016-May-20 11:34N 52°01' E 004°01'1312.7
2016-May-20 10:34N 51°53' E 003°45'2210.4
2016-May-20 08:29N 51°37' E 003°22'1 0.5
2016-May-20 07:29N 51°37' E 003°21'1 0.5
2016-May-20 06:31N 51°36' E 003°21'0 0.2
2016-May-20 05:32N 51°37' E 003°21'2 1.8
2016-May-20 04:33N 51°38' E 003°23'1 0.9
2016-May-20 03:33N 51°38' E 003°24'1 1.0
2016-May-20 02:31N 51°37' E 003°23'0 0.4
2016-May-20 01:32N 51°38' E 003°23'0 0.5
2016-May-20 00:32N 51°38' E 003°24'0 0.2
2016-May-19 23:33N 51°38' E 003°24'0 0.3
2016-May-19 22:33N 51°38' E 003°24'0 0.2
2016-May-19 21:33N 51°38' E 003°24'1 1.2
2016-May-19 20:33N 51°37' E 003°22'1 1.2
2016-May-19 19:33N 51°37' E 003°21'1 0.7
2016-May-19 18:33N 51°37' E 003°20'1 1.0
2016-May-19 17:33N 51°37' E 003°21'1 1.2
2016-May-19 16:33N 51°38' E 003°23'1 0.7
2016-May-19 15:32N 51°38' E 003°24'1 1.4
2016-May-19 14:26N 51°37' E 003°22'1 1.1
2016-May-19 13:33N 51°38' E 003°21'1 0.6
2016-May-19 12:33N 51°38' E 003°20'1 1.4
2016-May-19 11:33N 51°39' E 003°21'2 2.0
2016-May-19 10:32N 51°39' E 003°24'1 1.3
2016-May-19 09:31N 51°38' E 003°22'1 0.6
2016-May-19 08:33N 51°38' E 003°22'1 0.9
2016-May-19 07:33N 51°39' E 003°24'1 0.7
2016-May-19 06:32N 51°38' E 003°23'1 0.6
2016-May-19 05:33N 51°39' E 003°22'0 0.4
2016-May-19 04:33N 51°39' E 003°22'2 1.7
2016-May-19 03:33N 51°38' E 003°19'0 0.3
2016-May-19 02:33N 51°38' E 003°20'1 0.6
2016-May-19 01:33N 51°39' E 003°21'1 1.1
2016-May-19 00:33N 51°39' E 003°22'1 0.8
2016-May-18 23:33N 51°40' E 003°23'2 2.4
2016-May-18 22:33N 51°38' E 003°20'0 0.3
2016-May-18 21:33N 51°38' E 003°20'1 0.6
2016-May-18 20:33N 51°38' E 003°19'2 1.9
2016-May-18 19:32N 51°39' E 003°22'1 1.0
2016-May-18 18:33N 51°40' E 003°22'1 1.3
2016-May-18 17:32N 51°39' E 003°20'0 0.4
2016-May-18 16:33N 51°39' E 003°20'2 1.4
2016-May-18 15:26N 51°40' E 003°23'0 0.5
2016-May-18 14:34N 51°39' E 003°22'1 0.7
2016-May-18 13:32N 51°40' E 003°23'2 2.5
2016-May-18 12:32N 51°39' E 003°20'0 0.2
2016-May-18 11:31N 51°39' E 003°20'1 1.0
2016-May-18 10:28N 51°39' E 003°21'0 0.4
2016-May-18 09:31N 51°40' E 003°22'1 0.8
2016-May-18 08:31N 51°40' E 003°23'2 1.7
2016-May-18 07:32N 51°41' E 003°21'0 0.3
2016-May-18 06:10N 51°41' E 003°20'0 0.4
2016-May-18 05:32N 51°42' E 003°20'19 1.7
2016-May-17 18:28N 52°00' E 003°29'0 0.5
2016-May-17 17:32N 52°00' E 003°30'4 1.8
2016-May-17 15:33N 52°01' E 003°36'3 3.3
2016-May-17 14:33N 52°01' E 003°41'2 1.8
2016-May-17 13:33N 52°01' E 003°44'4 3.7
2016-May-17 12:33N 52°01' E 003°50'0 0.2
2016-May-17 11:33N 52°01' E 003°50'3 3.4
2016-May-17 10:33N 52°03' E 003°55'1110.7
2016-May-17 09:33N 52°06' E 004°12'2 2.4
2016-May-17 08:33N 52°06' E 004°16'0 0.0
2016-May-17 07:30N 52°06' E 004°16'0 0.0
2016-May-17 06:33N 52°06' E 004°16'0 0.0
2016-May-17 05:30N 52°06' E 004°16'0 0.0
2016-May-17 04:33N 52°06' E 004°16'  
Track history (hours):
 
Tides and Currents Weather Stations Pressure Air Temp Water Temp Dewpoint Dewpoint Depression Visibility Wind Speed Wind Dir Waves Ship Positions

Oceanographic research ship Arca (Netherlands)

Detailed information on ship capabilities available from University of Delaware's Ocean Information Center.

Last reported at 2016-May-27 04:32 UTC. Time now 2016-May-27 04:34 UTC.
Position N 52°06' E 004°16'.

Length 83 m; draft 5 m.

Type: Law enforcement. MMSI: 244454000.

Date/timePositionNaut miles runAvg speedWind from/ knotsBaromVisibWave heightAir tempDewpointWater temp
2016-May-27 04:32N 52°06' E 004°16'0 0.0
2016-May-27 03:32N 52°06' E 004°16'0 0.0
2016-May-27 02:32N 52°06' E 004°16'0 0.0
2016-May-27 01:32N 52°06' E 004°16'0 0.0
2016-May-27 00:32N 52°06' E 004°16'0 0.0
2016-May-26 23:32N 52°06' E 004°16'0 0.0
2016-May-26 22:32N 52°06' E 004°16'0 0.0
2016-May-26 21:32N 52°06' E 004°16'0 0.0
2016-May-26 20:32N 52°06' E 004°16'0 0.0
2016-May-26 19:32N 52°06' E 004°16'0 0.0
2016-May-26 18:32N 52°06' E 004°16'0 0.0
2016-May-26 17:32N 52°06' E 004°16'0 0.0
2016-May-26 16:29N 52°06' E 004°16'0 0.0
2016-May-26 15:32N 52°06' E 004°16'0 0.0
2016-May-26 14:32N 52°06' E 004°16'0 0.0
2016-May-26 13:29N 52°06' E 004°16'0 0.0
2016-May-26 12:29N 52°06' E 004°16'0 0.0
2016-May-26 11:32N 52°06' E 004°16'0 0.0
2016-May-26 10:32N 52°06' E 004°16'0 0.0
2016-May-26 09:32N 52°06' E 004°16'0 0.0
2016-May-26 08:32N 52°06' E 004°16'0 0.0
2016-May-26 07:32N 52°06' E 004°16'0 0.0
2016-May-26 06:32N 52°06' E 004°16'0 0.0
2016-May-26 05:29N 52°06' E 004°16'0 0.0
2016-May-26 04:32N 52°06' E 004°16'0 0.0
2016-May-26 03:32N 52°06' E 004°16'0 0.0
2016-May-26 02:32N 52°06' E 004°16'0 0.0
2016-May-26 01:32N 52°06' E 004°16'0 0.0
2016-May-26 00:32N 52°06' E 004°16'0 0.0
2016-May-25 23:32N 52°06' E 004°16'0 0.0
2016-May-25 22:29N 52°06' E 004°16'0 0.0
2016-May-25 21:32N 52°06' E 004°16'0 0.0
2016-May-25 20:32N 52°06' E 004°16'0 0.0
2016-May-25 19:32N 52°06' E 004°16'0 0.0
2016-May-25 18:32N 52°06' E 004°16'5 5.3
2016-May-25 17:33N 52°03' E 004°08'5 5.5
2016-May-25 16:34N 51°58' E 004°05'0 0.2
2016-May-25 15:34N 51°58' E 004°05'0 0.5
2016-May-25 14:34N 51°58' E 004°06'0 0.3
2016-May-25 13:33N 51°58' E 004°05'1 1.1
2016-May-25 12:33N 51°59' E 004°04'1 1.0
2016-May-25 11:34N 51°59' E 004°03'1 1.1
2016-May-25 10:33N 51°59' E 004°04'1 0.7
2016-May-25 09:34N 51°59' E 004°03'0 0.5
2016-May-25 08:33N 51°59' E 004°04'0 0.1
2016-May-25 07:34N 51°59' E 004°04'1 1.1
2016-May-25 06:33N 51°59' E 004°02'2 2.4
2016-May-25 05:34N 51°58' E 004°06'2 2.1
2016-May-25 04:33N 52°00' E 004°05'0 0.0
2016-May-25 03:33N 52°00' E 004°05'0 0.1
2016-May-25 02:33N 52°00' E 004°05'0 0.0
2016-May-25 01:33N 52°00' E 004°05'0 0.0
2016-May-25 00:33N 52°00' E 004°05'0 0.0
2016-May-24 23:33N 52°00' E 004°05'0 0.0
2016-May-24 22:33N 52°00' E 004°05'0 0.0
2016-May-24 21:33N 52°00' E 004°05'0 0.0
2016-May-24 20:33N 52°00' E 004°05'2 1.6
2016-May-24 19:33N 51°59' E 004°03'1 0.8
2016-May-24 18:33N 51°59' E 004°04'1 0.8
2016-May-24 17:33N 51°58' E 004°05'0 0.3
2016-May-24 16:33N 51°58' E 004°05'0 0.3
2016-May-24 15:33N 51°58' E 004°06'0 0.1
2016-May-24 14:33N 51°58' E 004°06'0 0.3
2016-May-24 13:33N 51°58' E 004°06'1 0.9
2016-May-24 12:33N 51°59' E 004°05'1 0.7
2016-May-24 11:33N 51°59' E 004°04'1 0.8
2016-May-24 10:34N 51°59' E 004°03'0 0.3
2016-May-24 09:33N 51°59' E 004°03'0 0.1
2016-May-24 08:33N 51°59' E 004°03'1 0.7
2016-May-24 07:33N 51°59' E 004°04'1 1.1
2016-May-24 06:33N 51°59' E 004°06'0 0.2
2016-May-24 05:33N 51°58' E 004°06'2 2.0
2016-May-24 04:32N 52°00' E 004°05'0 0.0
2016-May-24 03:32N 52°00' E 004°05'0 0.0
2016-May-24 02:32N 52°00' E 004°05'0 0.0
2016-May-24 01:32N 52°00' E 004°05'0 0.0
2016-May-24 00:32N 52°00' E 004°05'0 0.0
2016-May-23 23:32N 52°00' E 004°05'0 0.0
2016-May-23 22:32N 52°00' E 004°04'0 0.0
2016-May-23 21:32N 52°00' E 004°05'0 0.0
2016-May-23 20:32N 52°00' E 004°05'0 0.0
2016-May-23 19:32N 52°00' E 004°05'3 2.7
2016-May-23 18:34N 51°58' E 004°05'0 0.3
2016-May-23 17:34N 51°58' E 004°05'0 0.5
2016-May-23 16:34N 51°59' E 004°05'1 0.6
2016-May-23 15:34N 51°58' E 004°06'4 3.8
2016-May-23 14:34N 51°60' E 004°01'9 9.5
2016-May-23 13:34N 52°06' E 004°12'2 2.0
2016-May-23 12:33N 52°06' E 004°16'0 0.0
2016-May-23 11:30N 52°06' E 004°16'0 0.0
2016-May-23 10:33N 52°06' E 004°16'0 0.0
2016-May-23 09:33N 52°06' E 004°16'0 0.0
2016-May-23 08:33N 52°06' E 004°16'0 0.0
2016-May-23 07:33N 52°06' E 004°16'0 0.0
2016-May-23 06:33N 52°06' E 004°16'0 0.0
2016-May-23 05:33N 52°06' E 004°16'0 0.0
2016-May-23 04:33N 52°06' E 004°16'0 0.0
2016-May-23 03:33N 52°06' E 004°16'0 0.0
2016-May-23 02:33N 52°06' E 004°16'0 0.0
2016-May-23 01:33N 52°06' E 004°16'0 0.0
2016-May-23 00:33N 52°06' E 004°16'0 0.0
2016-May-22 23:33N 52°06' E 004°16'0 0.0
2016-May-22 22:33N 52°06' E 004°16'0 0.0
2016-May-22 21:33N 52°06' E 004°16'0 0.0
2016-May-22 20:27N 52°06' E 004°16'0 0.0
2016-May-22 19:27N 52°06' E 004°16'0 0.0
2016-May-22 18:33N 52°06' E 004°16'0 0.0
2016-May-22 17:30N 52°06' E 004°16'0 0.0
2016-May-22 16:27N 52°06' E 004°16'0 0.0
2016-May-22 15:33N 52°06' E 004°16'0 0.0
2016-May-22 14:33N 52°06' E 004°16'0 0.0
2016-May-22 13:33N 52°06' E 004°16'0 0.0
2016-May-22 12:33N 52°06' E 004°16'0 0.0
2016-May-22 11:33N 52°06' E 004°16'0 0.0
2016-May-22 10:30N 52°06' E 004°16'0 0.0
2016-May-22 09:33N 52°06' E 004°16'0 0.0
2016-May-22 08:33N 52°06' E 004°16'0 0.0
2016-May-22 07:33N 52°06' E 004°16'0 0.0
2016-May-22 06:30N 52°06' E 004°16'0 0.0
2016-May-22 05:33N 52°06' E 004°16'0 0.0
2016-May-22 04:33N 52°06' E 004°16'0 0.0
2016-May-22 03:30N 52°06' E 004°16'0 0.0
2016-May-22 02:33N 52°06' E 004°16'0 0.0
2016-May-22 01:33N 52°06' E 004°16'0 0.0
2016-May-22 00:30N 52°06' E 004°16'0 0.0
2016-May-21 23:33N 52°06' E 004°16'0 0.0
2016-May-21 22:24N 52°06' E 004°16'0 0.0
2016-May-21 21:33N 52°06' E 004°16'0 0.0
2016-May-21 20:33N 52°06' E 004°16'0 0.0
2016-May-21 19:30N 52°06' E 004°16'0 0.0
2016-May-21 18:33N 52°06' E 004°16'0 0.0
2016-May-21 17:33N 52°06' E 004°16'0 0.0
2016-May-21 16:33N 52°06' E 004°16'0 0.0
2016-May-21 15:30N 52°06' E 004°16'0 0.0
2016-May-21 14:33N 52°06' E 004°16'0 0.0
2016-May-21 13:33N 52°06' E 004°16'0 0.0
2016-May-21 12:33N 52°06' E 004°16'0 0.0
2016-May-21 11:33N 52°06' E 004°16'0 0.0
2016-May-21 10:27N 52°06' E 004°16'0 0.0
2016-May-21 09:33N 52°06' E 004°16'0 0.0
2016-May-21 08:27N 52°06' E 004°16'0 0.0
2016-May-21 07:33N 52°06' E 004°16'0 0.0
2016-May-21 06:27N 52°06' E 004°16'0 0.0
2016-May-21 05:33N 52°06' E 004°16'0 0.0
2016-May-21 04:33N 52°06' E 004°16'0 0.0
2016-May-21 03:33N 52°06' E 004°16'0 0.0
2016-May-21 02:30N 52°06' E 004°16'0 0.0
2016-May-21 01:33N 52°06' E 004°16'0 0.0
2016-May-21 00:33N 52°06' E 004°16'0 0.0
2016-May-20 23:30N 52°06' E 004°16'0 0.0
2016-May-20 22:33N 52°06' E 004°16'0 0.0
2016-May-20 21:33N 52°06' E 004°16'0 0.0
2016-May-20 20:33N 52°06' E 004°16'0 0.0
2016-May-20 19:33N 52°06' E 004°16'0 0.0
2016-May-20 18:33N 52°06' E 004°16'0 0.0
2016-May-20 17:33N 52°06' E 004°16'0 0.0
2016-May-20 16:33N 52°06' E 004°16'0 0.0
2016-May-20 15:33N 52°06' E 004°16'0 0.0
2016-May-20 14:33N 52°06' E 004°16'0 0.0
2016-May-20 13:33N 52°06' E 004°16'2 2.4
2016-May-20 12:33N 52°08' E 004°14'1110.7
2016-May-20 11:34N 52°01' E 004°01'1312.7
2016-May-20 10:34N 51°53' E 003°45'2210.4
2016-May-20 08:29N 51°37' E 003°22'1 0.5
2016-May-20 07:29N 51°37' E 003°21'1 0.5
2016-May-20 06:31N 51°36' E 003°21'0 0.2
2016-May-20 05:32N 51°37' E 003°21'2 1.8
2016-May-20 04:33N 51°38' E 003°23'1 0.9
2016-May-20 03:33N 51°38' E 003°24'1 1.0
2016-May-20 02:31N 51°37' E 003°23'0 0.4
2016-May-20 01:32N 51°38' E 003°23'0 0.5
2016-May-20 00:32N 51°38' E 003°24'0 0.2
2016-May-19 23:33N 51°38' E 003°24'0 0.3
2016-May-19 22:33N 51°38' E 003°24'0 0.2
2016-May-19 21:33N 51°38' E 003°24'1 1.2
2016-May-19 20:33N 51°37' E 003°22'1 1.2
2016-May-19 19:33N 51°37' E 003°21'1 0.7
2016-May-19 18:33N 51°37' E 003°20'1 1.0
2016-May-19 17:33N 51°37' E 003°21'1 1.2
2016-May-19 16:33N 51°38' E 003°23'1 0.7
2016-May-19 15:32N 51°38' E 003°24'1 1.4
2016-May-19 14:26N 51°37' E 003°22'1 1.1
2016-May-19 13:33N 51°38' E 003°21'1 0.6
2016-May-19 12:33N 51°38' E 003°20'1 1.4
2016-May-19 11:33N 51°39' E 003°21'2 2.0
2016-May-19 10:32N 51°39' E 003°24'1 1.3
2016-May-19 09:31N 51°38' E 003°22'1 0.6
2016-May-19 08:33N 51°38' E 003°22'1 0.9
2016-May-19 07:33N 51°39' E 003°24'1 0.7
2016-May-19 06:32N 51°38' E 003°23'1 0.6
2016-May-19 05:33N 51°39' E 003°22'0 0.4
2016-May-19 04:33N 51°39' E 003°22'2 1.7
2016-May-19 03:33N 51°38' E 003°19'0 0.3
2016-May-19 02:33N 51°38' E 003°20'1 0.6
2016-May-19 01:33N 51°39' E 003°21'1 1.1
2016-May-19 00:33N 51°39' E 003°22'1 0.8
2016-May-18 23:33N 51°40' E 003°23'2 2.4
2016-May-18 22:33N 51°38' E 003°20'0 0.3
2016-May-18 21:33N 51°38' E 003°20'1 0.6
2016-May-18 20:33N 51°38' E 003°19'2 1.9
2016-May-18 19:32N 51°39' E 003°22'1 1.0
2016-May-18 18:33N 51°40' E 003°22'1 1.3
2016-May-18 17:32N 51°39' E 003°20'0 0.4
2016-May-18 16:33N 51°39' E 003°20'2 1.4
2016-May-18 15:26N 51°40' E 003°23'0 0.5
2016-May-18 14:34N 51°39' E 003°22'1 0.7
2016-May-18 13:32N 51°40' E 003°23'2 2.5
2016-May-18 12:32N 51°39' E 003°20'0 0.2
2016-May-18 11:31N 51°39' E 003°20'1 1.0
2016-May-18 10:28N 51°39' E 003°21'0 0.4
2016-May-18 09:31N 51°40' E 003°22'1 0.8
2016-May-18 08:31N 51°40' E 003°23'2 1.7
2016-May-18 07:32N 51°41' E 003°21'0 0.3
2016-May-18 06:10N 51°41' E 003°20'0 0.4
2016-May-18 05:32N 51°42' E 003°20'19 1.7
2016-May-17 18:28N 52°00' E 003°29'0 0.5
2016-May-17 17:32N 52°00' E 003°30'4 1.8
2016-May-17 15:33N 52°01' E 003°36'3 3.3
2016-May-17 14:33N 52°01' E 003°41'2 1.8
2016-May-17 13:33N 52°01' E 003°44'4 3.7
2016-May-17 12:33N 52°01' E 003°50'0 0.2
2016-May-17 11:33N 52°01' E 003°50'3 3.4
2016-May-17 10:33N 52°03' E 003°55'1110.7
2016-May-17 09:33N 52°06' E 004°12'2 2.4
2016-May-17 08:33N 52°06' E 004°16'0 0.0
2016-May-17 07:30N 52°06' E 004°16'0 0.0
2016-May-17 06:33N 52°06' E 004°16'0 0.0
2016-May-17 05:30N 52°06' E 004°16'0 0.0
2016-May-17 04:33N 52°06' E 004°16'  

Dump ship's entire track history